KCFV

Details ICAO KCFV
Name COFFEYVILLE MUNI
Region United States
Timezone America/Chicago (UTC-5.0)
Plans Departing 1
Arriving 0
Stats Elevation 754 ft / 230 m (AMSL)
Location 37.093772° -95.571323°
Runways 2
Magnetic Variation 2.386° E
Sunrise 2018-05-20 11:11:39 UTC / 2018-05-20 06:11:39 Local
Sunset 2018-05-21 01:28:51 UTC / 2018-05-20 20:28:51 Local
Advertisement - Login to hide

Runways

ID Width Length Bearing (true) Bearing (mag) Surface Threshold Offset Overrun Length
04 75 ft / 23 m 3,864 ft / 1,178 m 43.89° 41.50° Asphalt 0 ft / 0 m 0 ft / 0 m
17 100 ft / 30 m 5,879 ft / 1,792 m 179.84° 177.45° Asphalt 0 ft / 0 m 0 ft / 0 m
22 75 ft / 23 m 3,864 ft / 1,178 m 223.90° 221.51° Asphalt 0 ft / 0 m 0 ft / 0 m
35 100 ft / 30 m 5,879 ft / 1,792 m 359.84° 357.45° Asphalt 0 ft / 0 m 0 ft / 0 m

Map

Weather


0- 5 10 15 20 25 30 35+ Temperature / ° C

Clouds and Precipitation
Forecast for 2018-05-20 12:00 UTC. Updated an hour ago

Ground ~20,000 ft ~40,000 ft Winds

METAR

KCFV 201041Z AUTO 00000KT 3SM RA BR SCT055 BKN075 OVC090 18/18 A3006 RMK AO2 P0018 T01830178 TSNO $

TAF

Not found

Frequencies

Recorded 121.27 MHz ASOS
Unicom 123.00 MHz CTAF/UNICOM
Warning: Do not use this data for real-world aviation or navigation. No guarantee of current accuracy is given.